sensor_id;sensor_type;location;lat;lon;timestamp;temperature;humidity
18506;DHT22;9382;53.242;10.438;2022-10-30T00:00:28;14.40;99.90
18506;DHT22;9382;53.242;10.438;2022-10-30T00:02:55;14.40;99.90
18506;DHT22;9382;53.242;10.438;2022-10-30T00:05:23;14.40;99.90
18506;DHT22;9382;53.242;10.438;2022-10-30T00:07:50;14.40;99.90
18506;DHT22;9382;53.242;10.438;2022-10-30T00:10:17;14.40;99.90
18506;DHT22;9382;53.242;10.438;2022-10-30T00:12:44;14.30;99.90
18506;DHT22;9382;53.242;10.438;2022-10-30T00:15:11;14.30;99.90
18506;DHT22;9382;53.242;10.438;2022-10-30T00:17:38;14.30;99.90
18506;DHT22;9382;53.242;10.438;2022-10-30T00:20:06;14.30;99.90
18506;DHT22;9382;53.242;10.438;2022-10-30T00:22:35;14.30;99.90
18506;DHT22;9382;53.242;10.438;2022-10-30T00:25:02;14.30;99.90
18506;DHT22;9382;53.242;10.438;2022-10-30T00:27:29;14.30;99.90
18506;DHT22;9382;53.242;10.438;2022-10-30T00:29:56;14.30;99.90
18506;DHT22;9382;53.242;10.438;2022-10-30T00:32:23;14.30;99.90
18506;DHT22;9382;53.242;10.438;2022-10-30T00:34:50;14.20;99.90
18506;DHT22;9382;53.242;10.438;2022-10-30T00:37:16;14.20;99.90
18506;DHT22;9382;53.242;10.438;2022-10-30T00:39:44;14.20;99.90
18506;DHT22;9382;53.242;10.438;2022-10-30T00:42:13;14.10;99.90
18506;DHT22;9382;53.242;10.438;2022-10-30T00:44:44;14.00;99.90
18506;DHT22;9382;53.242;10.438;2022-10-30T00:47:17;14.00;99.90
18506;DHT22;9382;53.242;10.438;2022-10-30T00:49:50;13.90;99.90
18506;DHT22;9382;53.242;10.438;2022-10-30T00:52:19;13.90;99.90
18506;DHT22;9382;53.242;10.438;2022-10-30T00:54:48;13.90;99.90
18506;DHT22;9382;53.242;10.438;2022-10-30T00:57:15;13.80;99.90
18506;DHT22;9382;53.242;10.438;2022-10-30T00:59:44;13.80;99.90
18506;DHT22;9382;53.242;10.438;2022-10-30T01:02:11;13.80;99.90
18506;DHT22;9382;53.242;10.438;2022-10-30T01:04:38;13.80;99.90
18506;DHT22;9382;53.242;10.438;2022-10-30T01:07:09;13.80;99.90
18506;DHT22;9382;53.242;10.438;2022-10-30T01:09:37;13.80;99.90
18506;DHT22;9382;53.242;10.438;2022-10-30T01:12:06;13.90;99.90
18506;DHT22;9382;53.242;10.438;2022-10-30T01:14:35;13.80;99.90
18506;DHT22;9382;53.242;10.438;2022-10-30T01:17:16;13.90;99.90
18506;DHT22;9382;53.242;10.438;2022-10-30T01:19:52;13.90;99.90
18506;DHT22;9382;53.242;10.438;2022-10-30T01:22:36;13.90;99.90
18506;DHT22;9382;53.242;10.438;2022-10-30T01:25:14;13.90;99.90
18506;DHT22;9382;53.242;10.438;2022-10-30T01:27:54;13.90;99.90
18506;DHT22;9382;53.242;10.438;2022-10-30T01:30:31;13.90;99.90
18506;DHT22;9382;53.242;10.438;2022-10-30T01:33:10;13.90;99.90
18506;DHT22;9382;53.242;10.438;2022-10-30T01:35:45;13.90;99.90
18506;DHT22;9382;53.242;10.438;2022-10-30T01:38:18;14.00;99.90
18506;DHT22;9382;53.242;10.438;2022-10-30T01:40:47;14.00;99.90
18506;DHT22;9382;53.242;10.438;2022-10-30T01:43:15;14.00;99.90
18506;DHT22;9382;53.242;10.438;2022-10-30T01:45:58;14.00;99.90
18506;DHT22;9382;53.242;10.438;2022-10-30T01:51:44;13.90;99.90
18506;DHT22;9382;53.242;10.438;2022-10-30T01:54:20;14.00;99.90
18506;DHT22;9382;53.242;10.438;2022-10-30T01:56:58;13.90;99.90
18506;DHT22;9382;53.242;10.438;2022-10-30T01:59:34;13.90;99.90
18506;DHT22;9382;53.242;10.438;2022-10-30T02:02:03;13.90;99.90
18506;DHT22;9382;53.242;10.438;2022-10-30T02:04:30;13.90;99.90
18506;DHT22;9382;53.242;10.438;2022-10-30T02:06:57;13.90;99.90
18506;DHT22;9382;53.242;10.438;2022-10-30T02:09:24;13.90;99.90
18506;DHT22;9382;53.242;10.438;2022-10-30T02:11:51;13.80;99.90
18506;DHT22;9382;53.242;10.438;2022-10-30T02:14:22;13.80;99.90
18506;DHT22;9382;53.242;10.438;2022-10-30T02:16:52;13.80;99.90
18506;DHT22;9382;53.242;10.438;2022-10-30T02:19:20;13.80;99.90
18506;DHT22;9382;53.242;10.438;2022-10-30T02:21:48;13.70;99.90
18506;DHT22;9382;53.242;10.438;2022-10-30T02:24:15;13.70;99.90
18506;DHT22;9382;53.242;10.438;2022-10-30T02:26:42;13.60;99.90
18506;DHT22;9382;53.242;10.438;2022-10-30T02:29:09;13.60;99.90
18506;DHT22;9382;53.242;10.438;2022-10-30T02:31:35;13.50;99.90
18506;DHT22;9382;53.242;10.438;2022-10-30T02:34:02;13.50;99.90
18506;DHT22;9382;53.242;10.438;2022-10-30T02:36:29;13.40;99.90
18506;DHT22;9382;53.242;10.438;2022-10-30T02:38:57;13.40;99.90
18506;DHT22;9382;53.242;10.438;2022-10-30T02:41:24;13.40;99.90
18506;DHT22;9382;53.242;10.438;2022-10-30T02:43:51;13.30;99.90
18506;DHT22;9382;53.242;10.438;2022-10-30T02:46:18;13.30;99.90
18506;DHT22;9382;53.242;10.438;2022-10-30T02:48:45;13.30;99.90
18506;DHT22;9382;53.242;10.438;2022-10-30T02:51:12;13.30;99.90
18506;DHT22;9382;53.242;10.438;2022-10-30T02:53:39;13.30;99.90
18506;DHT22;9382;53.242;10.438;2022-10-30T02:56:09;13.30;99.90
18506;DHT22;9382;53.242;10.438;2022-10-30T02:58:37;13.30;99.90
18506;DHT22;9382;53.242;10.438;2022-10-30T03:01:05;13.30;99.90
18506;DHT22;9382;53.242;10.438;2022-10-30T03:03:32;13.30;99.90
18506;DHT22;9382;53.242;10.438;2022-10-30T03:05:59;13.20;99.90
18506;DHT22;9382;53.242;10.438;2022-10-30T03:08:26;13.20;99.90
18506;DHT22;9382;53.242;10.438;2022-10-30T03:10:58;13.20;99.90
18506;DHT22;9382;53.242;10.438;2022-10-30T03:13:27;13.20;99.90
18506;DHT22;9382;53.242;10.438;2022-10-30T03:15:59;13.20;99.90
18506;DHT22;9382;53.242;10.438;2022-10-30T03:18:26;13.20;99.90
18506;DHT22;9382;53.242;10.438;2022-10-30T03:20:57;13.20;99.90
18506;DHT22;9382;53.242;10.438;2022-10-30T03:23:24;13.20;99.90
18506;DHT22;9382;53.242;10.438;2022-10-30T03:25:52;13.20;99.90
18506;DHT22;9382;53.242;10.438;2022-10-30T03:28:20;13.30;99.90
18506;DHT22;9382;53.242;10.438;2022-10-30T03:30:48;13.30;99.90
18506;DHT22;9382;53.242;10.438;2022-10-30T03:33:15;13.30;99.90
18506;DHT22;9382;53.242;10.438;2022-10-30T03:35:43;13.30;99.90
18506;DHT22;9382;53.242;10.438;2022-10-30T03:38:10;13.30;99.90
18506;DHT22;9382;53.242;10.438;2022-10-30T03:40:37;13.30;99.90
18506;DHT22;9382;53.242;10.438;2022-10-30T03:43:03;13.30;99.90
18506;DHT22;9382;53.242;10.438;2022-10-30T03:45:31;13.30;99.90
18506;DHT22;9382;53.242;10.438;2022-10-30T03:47:59;13.30;99.90
18506;DHT22;9382;53.242;10.438;2022-10-30T03:50:26;13.30;99.90
18506;DHT22;9382;53.242;10.438;2022-10-30T03:52:53;13.30;99.90
18506;DHT22;9382;53.242;10.438;2022-10-30T03:55:20;13.30;99.90
18506;DHT22;9382;53.242;10.438;2022-10-30T03:57:46;13.30;99.90
18506;DHT22;9382;53.242;10.438;2022-10-30T04:00:13;13.40;99.90
18506;DHT22;9382;53.242;10.438;2022-10-30T04:02:44;13.40;99.90
18506;DHT22;9382;53.242;10.438;2022-10-30T04:05:12;13.40;99.90
18506;DHT22;9382;53.242;10.438;2022-10-30T04:07:39;13.40;99.90
18506;DHT22;9382;53.242;10.438;2022-10-30T04:10:06;13.40;99.90
18506;DHT22;9382;53.242;10.438;2022-10-30T04:12:33;13.40;99.90
18506;DHT22;9382;53.242;10.438;2022-10-30T04:15:00;13.30;99.90
18506;DHT22;9382;53.242;10.438;2022-10-30T04:17:27;13.20;99.90
18506;DHT22;9382;53.242;10.438;2022-10-30T04:19:53;13.10;99.90
18506;DHT22;9382;53.242;10.438;2022-10-30T04:22:22;13.00;99.90
18506;DHT22;9382;53.242;10.438;2022-10-30T04:24:48;13.00;99.90
18506;DHT22;9382;53.242;10.438;2022-10-30T04:27:15;12.90;99.90
18506;DHT22;9382;53.242;10.438;2022-10-30T04:29:42;12.90;99.90
18506;DHT22;9382;53.242;10.438;2022-10-30T04:32:09;12.90;99.90
18506;DHT22;9382;53.242;10.438;2022-10-30T04:34:36;12.90;99.90
18506;DHT22;9382;53.242;10.438;2022-10-30T04:37:04;12.90;99.90
18506;DHT22;9382;53.242;10.438;2022-10-30T04:39:32;12.90;99.90
18506;DHT22;9382;53.242;10.438;2022-10-30T04:41:59;12.90;99.90
18506;DHT22;9382;53.242;10.438;2022-10-30T04:44:26;12.90;99.90
18506;DHT22;9382;53.242;10.438;2022-10-30T04:46:52;12.80;99.90
18506;DHT22;9382;53.242;10.438;2022-10-30T04:49:19;12.70;99.90
18506;DHT22;9382;53.242;10.438;2022-10-30T04:51:46;12.70;99.90
18506;DHT22;9382;53.242;10.438;2022-10-30T04:54:12;12.60;99.90
18506;DHT22;9382;53.242;10.438;2022-10-30T04:56:40;12.50;99.90
18506;DHT22;9382;53.242;10.438;2022-10-30T04:59:07;12.50;99.90
18506;DHT22;9382;53.242;10.438;2022-10-30T05:01:34;12.50;99.90
18506;DHT22;9382;53.242;10.438;2022-10-30T05:04:01;12.50;99.90
18506;DHT22;9382;53.242;10.438;2022-10-30T05:06:28;12.50;99.90
18506;DHT22;9382;53.242;10.438;2022-10-30T05:08:56;12.50;99.90
18506;DHT22;9382;53.242;10.438;2022-10-30T05:11:22;12.50;99.90
18506;DHT22;9382;53.242;10.438;2022-10-30T05:13:51;12.40;99.90
18506;DHT22;9382;53.242;10.438;2022-10-30T05:16:18;12.40;99.90
18506;DHT22;9382;53.242;10.438;2022-10-30T05:18:44;12.40;99.90
18506;DHT22;9382;53.242;10.438;2022-10-30T05:21:11;12.40;99.90
18506;DHT22;9382;53.242;10.438;2022-10-30T05:23:38;12.40;99.90
18506;DHT22;9382;53.242;10.438;2022-10-30T05:26:05;12.30;99.90
18506;DHT22;9382;53.242;10.438;2022-10-30T05:28:31;12.40;99.90
18506;DHT22;9382;53.242;10.438;2022-10-30T05:30:59;12.40;99.90
18506;DHT22;9382;53.242;10.438;2022-10-30T05:33:26;12.40;99.90
18506;DHT22;9382;53.242;10.438;2022-10-30T05:35:53;12.40;99.90
18506;DHT22;9382;53.242;10.438;2022-10-30T05:38:19;12.40;99.90
18506;DHT22;9382;53.242;10.438;2022-10-30T05:40:46;12.40;99.90
18506;DHT22;9382;53.242;10.438;2022-10-30T05:43:14;12.40;99.90
18506;DHT22;9382;53.242;10.438;2022-10-30T05:45:40;12.40;99.90
18506;DHT22;9382;53.242;10.438;2022-10-30T05:48:08;12.30;99.90
18506;DHT22;9382;53.242;10.438;2022-10-30T05:50:35;12.30;99.90
18506;DHT22;9382;53.242;10.438;2022-10-30T05:53:03;12.30;99.90
18506;DHT22;9382;53.242;10.438;2022-10-30T05:55:30;12.20;99.90
18506;DHT22;9382;53.242;10.438;2022-10-30T05:57:57;12.20;99.90
18506;DHT22;9382;53.242;10.438;2022-10-30T06:00:25;12.20;99.90
18506;DHT22;9382;53.242;10.438;2022-10-30T06:02:57;12.20;99.90
18506;DHT22;9382;53.242;10.438;2022-10-30T06:05:25;12.20;99.90
18506;DHT22;9382;53.242;10.438;2022-10-30T06:07:53;12.20;99.90
18506;DHT22;9382;53.242;10.438;2022-10-30T06:10:21;12.20;99.90
18506;DHT22;9382;53.242;10.438;2022-10-30T06:12:51;12.10;99.90
18506;DHT22;9382;53.242;10.438;2022-10-30T06:15:18;12.10;99.90
18506;DHT22;9382;53.242;10.438;2022-10-30T06:17:45;12.10;99.90
18506;DHT22;9382;53.242;10.438;2022-10-30T06:20:12;12.00;99.90
18506;DHT22;9382;53.242;10.438;2022-10-30T06:22:40;12.00;99.90
18506;DHT22;9382;53.242;10.438;2022-10-30T06:25:07;12.00;99.90
18506;DHT22;9382;53.242;10.438;2022-10-30T06:27:34;12.00;99.90
18506;DHT22;9382;53.242;10.438;2022-10-30T06:30:01;12.00;99.90
18506;DHT22;9382;53.242;10.438;2022-10-30T06:32:28;12.10;99.90
18506;DHT22;9382;53.242;10.438;2022-10-30T06:34:55;12.10;99.90
18506;DHT22;9382;53.242;10.438;2022-10-30T06:37:21;12.10;99.90
18506;DHT22;9382;53.242;10.438;2022-10-30T06:39:49;12.20;99.90
18506;DHT22;9382;53.242;10.438;2022-10-30T06:42:16;12.30;99.90
18506;DHT22;9382;53.242;10.438;2022-10-30T06:44:43;12.30;99.90
18506;DHT22;9382;53.242;10.438;2022-10-30T06:47:10;12.40;99.90
18506;DHT22;9382;53.242;10.438;2022-10-30T06:49:36;12.40;99.90
18506;DHT22;9382;53.242;10.438;2022-10-30T06:52:03;12.40;99.90
18506;DHT22;9382;53.242;10.438;2022-10-30T06:54:31;12.40;99.90
18506;DHT22;9382;53.242;10.438;2022-10-30T06:56:59;12.40;99.90
18506;DHT22;9382;53.242;10.438;2022-10-30T06:59:26;12.40;99.90
18506;DHT22;9382;53.242;10.438;2022-10-30T07:01:53;12.50;99.90
18506;DHT22;9382;53.242;10.438;2022-10-30T07:04:20;12.50;99.90
18506;DHT22;9382;53.242;10.438;2022-10-30T07:06:47;12.60;99.90
18506;DHT22;9382;53.242;10.438;2022-10-30T07:09:14;12.60;99.90
18506;DHT22;9382;53.242;10.438;2022-10-30T07:11:41;12.70;99.90
18506;DHT22;9382;53.242;10.438;2022-10-30T07:14:11;12.80;99.90
18506;DHT22;9382;53.242;10.438;2022-10-30T07:16:38;12.80;99.90
18506;DHT22;9382;53.242;10.438;2022-10-30T07:19:05;12.90;99.90
18506;DHT22;9382;53.242;10.438;2022-10-30T07:21:31;12.90;99.90
18506;DHT22;9382;53.242;10.438;2022-10-30T07:23:58;12.90;99.90
18506;DHT22;9382;53.242;10.438;2022-10-30T07:26:25;13.00;99.90
18506;DHT22;9382;53.242;10.438;2022-10-30T07:28:51;13.00;99.90
18506;DHT22;9382;53.242;10.438;2022-10-30T07:31:19;13.10;99.90
18506;DHT22;9382;53.242;10.438;2022-10-30T07:33:46;13.20;99.90
18506;DHT22;9382;53.242;10.438;2022-10-30T07:36:13;13.30;99.90
18506;DHT22;9382;53.242;10.438;2022-10-30T07:38:40;13.40;99.90
18506;DHT22;9382;53.242;10.438;2022-10-30T07:41:07;13.60;99.90
18506;DHT22;9382;53.242;10.438;2022-10-30T07:43:33;13.70;99.90
18506;DHT22;9382;53.242;10.438;2022-10-30T07:46:00;13.90;99.90
18506;DHT22;9382;53.242;10.438;2022-10-30T07:48:28;14.00;99.90
18506;DHT22;9382;53.242;10.438;2022-10-30T07:50:55;14.10;99.90
18506;DHT22;9382;53.242;10.438;2022-10-30T07:53:21;14.30;99.90
18506;DHT22;9382;53.242;10.438;2022-10-30T07:55:48;14.40;99.90
18506;DHT22;9382;53.242;10.438;2022-10-30T07:58:15;14.50;99.90
18506;DHT22;9382;53.242;10.438;2022-10-30T08:00:42;14.70;99.90
18506;DHT22;9382;53.242;10.438;2022-10-30T08:03:10;14.80;99.90
18506;DHT22;9382;53.242;10.438;2022-10-30T08:05:38;14.90;99.90
18506;DHT22;9382;53.242;10.438;2022-10-30T08:08:05;15.10;99.90
18506;DHT22;9382;53.242;10.438;2022-10-30T08:10:32;15.20;99.90
18506;DHT22;9382;53.242;10.438;2022-10-30T08:12:59;15.40;99.90
18506;DHT22;9382;53.242;10.438;2022-10-30T08:15:25;15.50;99.90
18506;DHT22;9382;53.242;10.438;2022-10-30T08:17:53;15.70;99.90
18506;DHT22;9382;53.242;10.438;2022-10-30T08:20:21;15.80;99.90
18506;DHT22;9382;53.242;10.438;2022-10-30T08:22:50;16.00;99.90
18506;DHT22;9382;53.242;10.438;2022-10-30T08:25:19;16.20;99.90
18506;DHT22;9382;53.242;10.438;2022-10-30T08:27:50;16.30;99.90
18506;DHT22;9382;53.242;10.438;2022-10-30T08:30:18;16.40;99.90
18506;DHT22;9382;53.242;10.438;2022-10-30T08:32:44;16.60;99.90
18506;DHT22;9382;53.242;10.438;2022-10-30T08:35:11;16.80;99.90
18506;DHT22;9382;53.242;10.438;2022-10-30T08:37:38;16.90;99.90
18506;DHT22;9382;53.242;10.438;2022-10-30T08:40:08;16.90;99.90
18506;DHT22;9382;53.242;10.438;2022-10-30T08:42:35;17.00;99.90
18506;DHT22;9382;53.242;10.438;2022-10-30T08:45:03;17.00;99.90
18506;DHT22;9382;53.242;10.438;2022-10-30T08:47:30;17.10;99.90
18506;DHT22;9382;53.242;10.438;2022-10-30T08:49:57;17.10;99.90
18506;DHT22;9382;53.242;10.438;2022-10-30T08:52:24;17.30;99.90
18506;DHT22;9382;53.242;10.438;2022-10-30T08:54:51;17.40;99.90
18506;DHT22;9382;53.242;10.438;2022-10-30T08:57:20;17.50;99.90
18506;DHT22;9382;53.242;10.438;2022-10-30T08:59:46;17.50;99.90
18506;DHT22;9382;53.242;10.438;2022-10-30T09:02:13;17.70;99.90
18506;DHT22;9382;53.242;10.438;2022-10-30T09:04:40;17.70;99.90
18506;DHT22;9382;53.242;10.438;2022-10-30T09:07:06;17.80;99.90
18506;DHT22;9382;53.242;10.438;2022-10-30T09:09:33;18.00;99.90
18506;DHT22;9382;53.242;10.438;2022-10-30T09:12:00;18.10;99.90
18506;DHT22;9382;53.242;10.438;2022-10-30T09:14:28;18.20;99.90
18506;DHT22;9382;53.242;10.438;2022-10-30T09:16:55;18.30;99.90
18506;DHT22;9382;53.242;10.438;2022-10-30T09:19:21;18.30;99.90
18506;DHT22;9382;53.242;10.438;2022-10-30T09:21:48;18.40;99.90
18506;DHT22;9382;53.242;10.438;2022-10-30T09:24:15;18.50;99.90
18506;DHT22;9382;53.242;10.438;2022-10-30T09:26:42;18.60;99.90
18506;DHT22;9382;53.242;10.438;2022-10-30T09:29:08;18.70;99.90
18506;DHT22;9382;53.242;10.438;2022-10-30T09:31:37;18.80;99.90
18506;DHT22;9382;53.242;10.438;2022-10-30T09:34:03;19.00;99.90
18506;DHT22;9382;53.242;10.438;2022-10-30T09:36:30;19.20;99.90
18506;DHT22;9382;53.242;10.438;2022-10-30T09:38:57;19.50;99.90
18506;DHT22;9382;53.242;10.438;2022-10-30T09:41:44;19.60;99.90
18506;DHT22;9382;53.242;10.438;2022-10-30T09:44:22;19.80;99.90
18506;DHT22;9382;53.242;10.438;2022-10-30T09:47:04;19.80;99.90
18506;DHT22;9382;53.242;10.438;2022-10-30T09:49:44;19.70;99.90
18506;DHT22;9382;53.242;10.438;2022-10-30T09:52:27;19.80;99.90
18506;DHT22;9382;53.242;10.438;2022-10-30T09:55:07;19.90;99.90
18506;DHT22;9382;53.242;10.438;2022-10-30T09:57:45;20.00;99.90
18506;DHT22;9382;53.242;10.438;2022-10-30T10:00:16;20.10;99.90
18506;DHT22;9382;53.242;10.438;2022-10-30T10:02:55;20.30;99.90
18506;DHT22;9382;53.242;10.438;2022-10-30T10:05:25;20.40;99.90
18506;DHT22;9382;53.242;10.438;2022-10-30T10:07:58;20.30;99.90
18506;DHT22;9382;53.242;10.438;2022-10-30T10:10:35;20.40;99.90
18506;DHT22;9382;53.242;10.438;2022-10-30T10:13:03;20.50;99.90
18506;DHT22;9382;53.242;10.438;2022-10-30T10:15:36;20.60;99.90
18506;DHT22;9382;53.242;10.438;2022-10-30T10:18:12;20.70;99.90
18506;DHT22;9382;53.242;10.438;2022-10-30T10:20:44;20.90;99.90
18506;DHT22;9382;53.242;10.438;2022-10-30T10:23:16;21.00;99.90
18506;DHT22;9382;53.242;10.438;2022-10-30T10:25:47;21.10;99.90
18506;DHT22;9382;53.242;10.438;2022-10-30T10:31:20;21.60;99.90
18506;DHT22;9382;53.242;10.438;2022-10-30T10:34:13;21.70;99.90
18506;DHT22;9382;53.242;10.438;2022-10-30T10:36:49;21.90;99.90
18506;DHT22;9382;53.242;10.438;2022-10-30T10:39:29;22.10;99.90
18506;DHT22;9382;53.242;10.438;2022-10-30T10:42:05;22.60;99.90
18506;DHT22;9382;53.242;10.438;2022-10-30T10:44:45;23.00;99.90
18506;DHT22;9382;53.242;10.438;2022-10-30T10:47:29;23.30;99.90
18506;DHT22;9382;53.242;10.438;2022-10-30T10:50:17;23.50;99.90
18506;DHT22;9382;53.242;10.438;2022-10-30T10:52:48;23.80;99.90
18506;DHT22;9382;53.242;10.438;2022-10-30T10:55:19;24.00;99.90
18506;DHT22;9382;53.242;10.438;2022-10-30T10:57:47;24.10;99.90
18506;DHT22;9382;53.242;10.438;2022-10-30T11:00:16;24.40;99.90
18506;DHT22;9382;53.242;10.438;2022-10-30T11:02:51;24.70;99.90
18506;DHT22;9382;53.242;10.438;2022-10-30T11:05:29;24.90;99.90
18506;DHT22;9382;53.242;10.438;2022-10-30T11:08:00;25.30;99.90
18506;DHT22;9382;53.242;10.438;2022-10-30T11:10:27;25.60;99.90
18506;DHT22;9382;53.242;10.438;2022-10-30T11:12:54;25.80;99.90
18506;DHT22;9382;53.242;10.438;2022-10-30T11:15:30;26.00;99.90
18506;DHT22;9382;53.242;10.438;2022-10-30T11:18:00;26.30;99.90
18506;DHT22;9382;53.242;10.438;2022-10-30T11:20:36;26.30;99.90
18506;DHT22;9382;53.242;10.438;2022-10-30T11:23:03;26.40;99.90
18506;DHT22;9382;53.242;10.438;2022-10-30T11:25:50;26.50;99.90
18506;DHT22;9382;53.242;10.438;2022-10-30T11:31:22;27.10;99.90
18506;DHT22;9382;53.242;10.438;2022-10-30T11:33:52;27.60;99.90
18506;DHT22;9382;53.242;10.438;2022-10-30T11:36:23;27.90;99.90
18506;DHT22;9382;53.242;10.438;2022-10-30T11:38:51;27.70;99.90
18506;DHT22;9382;53.242;10.438;2022-10-30T11:41:19;27.90;99.90
18506;DHT22;9382;53.242;10.438;2022-10-30T11:43:47;28.00;99.90
18506;DHT22;9382;53.242;10.438;2022-10-30T11:46:20;28.20;99.90
18506;DHT22;9382;53.242;10.438;2022-10-30T11:48:48;28.60;99.90
18506;DHT22;9382;53.242;10.438;2022-10-30T11:51:31;29.10;99.90
18506;DHT22;9382;53.242;10.438;2022-10-30T11:53:59;29.40;99.90
18506;DHT22;9382;53.242;10.438;2022-10-30T11:56:27;29.80;99.90
18506;DHT22;9382;53.242;10.438;2022-10-30T11:58:55;30.10;99.90
18506;DHT22;9382;53.242;10.438;2022-10-30T12:01:24;30.40;99.90
18506;DHT22;9382;53.242;10.438;2022-10-30T12:03:53;30.80;99.90
18506;DHT22;9382;53.242;10.438;2022-10-30T12:06:26;30.90;99.90
18506;DHT22;9382;53.242;10.438;2022-10-30T12:08:59;30.80;99.90
18506;DHT22;9382;53.242;10.438;2022-10-30T12:11:28;30.90;99.90
18506;DHT22;9382;53.242;10.438;2022-10-30T12:13:56;31.10;99.90
18506;DHT22;9382;53.242;10.438;2022-10-30T12:16:24;30.80;99.90
18506;DHT22;9382;53.242;10.438;2022-10-30T12:19:00;30.60;99.90
18506;DHT22;9382;53.242;10.438;2022-10-30T12:21:29;30.60;99.90
18506;DHT22;9382;53.242;10.438;2022-10-30T12:24:03;30.80;99.90
18506;DHT22;9382;53.242;10.438;2022-10-30T12:26:35;31.10;99.90
18506;DHT22;9382;53.242;10.438;2022-10-30T12:29:07;31.20;99.90
18506;DHT22;9382;53.242;10.438;2022-10-30T12:31:40;31.00;99.90
18506;DHT22;9382;53.242;10.438;2022-10-30T12:34:27;30.80;99.90
18506;DHT22;9382;53.242;10.438;2022-10-30T12:37:02;30.70;99.90
18506;DHT22;9382;53.242;10.438;2022-10-30T12:39:44;30.80;99.90
18506;DHT22;9382;53.242;10.438;2022-10-30T12:42:13;30.90;99.90
18506;DHT22;9382;53.242;10.438;2022-10-30T12:44:43;31.10;99.90
18506;DHT22;9382;53.242;10.438;2022-10-30T12:47:17;31.50;99.90
18506;DHT22;9382;53.242;10.438;2022-10-30T12:49:49;31.20;99.90
18506;DHT22;9382;53.242;10.438;2022-10-30T12:52:20;31.50;99.70
18506;DHT22;9382;53.242;10.438;2022-10-30T12:54:53;31.50;99.90
18506;DHT22;9382;53.242;10.438;2022-10-30T12:57:24;31.20;99.90
18506;DHT22;9382;53.242;10.438;2022-10-30T13:00:00;30.90;99.90
18506;DHT22;9382;53.242;10.438;2022-10-30T13:02:38;30.90;99.90
18506;DHT22;9382;53.242;10.438;2022-10-30T13:05:18;31.20;98.80
18506;DHT22;9382;53.242;10.438;2022-10-30T13:07:50;31.20;99.90
18506;DHT22;9382;53.242;10.438;2022-10-30T13:10:30;31.60;99.90
18506;DHT22;9382;53.242;10.438;2022-10-30T13:13:02;32.10;98.30
18506;DHT22;9382;53.242;10.438;2022-10-30T13:15:34;32.40;96.80
18506;DHT22;9382;53.242;10.438;2022-10-30T13:18:14;32.30;97.40
18506;DHT22;9382;53.242;10.438;2022-10-30T13:20:45;31.80;98.40
18506;DHT22;9382;53.242;10.438;2022-10-30T13:23:18;31.90;97.60
18506;DHT22;9382;53.242;10.438;2022-10-30T13:25:54;32.40;96.70
18506;DHT22;9382;53.242;10.438;2022-10-30T13:28:25;32.40;96.90
18506;DHT22;9382;53.242;10.438;2022-10-30T13:30:59;32.30;95.80
18506;DHT22;9382;53.242;10.438;2022-10-30T13:33:35;31.80;94.70
18506;DHT22;9382;53.242;10.438;2022-10-30T13:36:12;30.80;96.80
18506;DHT22;9382;53.242;10.438;2022-10-30T13:38:45;30.50;98.70
18506;DHT22;9382;53.242;10.438;2022-10-30T13:41:22;30.90;97.90
18506;DHT22;9382;53.242;10.438;2022-10-30T13:43:58;31.10;97.20
18506;DHT22;9382;53.242;10.438;2022-10-30T13:46:45;31.20;99.10
18506;DHT22;9382;53.242;10.438;2022-10-30T13:49:28;31.40;99.20
18506;DHT22;9382;53.242;10.438;2022-10-30T13:52:01;31.70;97.20
18506;DHT22;9382;53.242;10.438;2022-10-30T13:54:34;31.80;96.30
18506;DHT22;9382;53.242;10.438;2022-10-30T13:57:07;31.80;97.00
18506;DHT22;9382;53.242;10.438;2022-10-30T13:59:51;31.30;97.10
18506;DHT22;9382;53.242;10.438;2022-10-30T14:02:35;30.50;97.30
18506;DHT22;9382;53.242;10.438;2022-10-30T14:05:15;29.90;99.10
18506;DHT22;9382;53.242;10.438;2022-10-30T14:07:50;29.50;99.90
18506;DHT22;9382;53.242;10.438;2022-10-30T14:10:24;29.30;99.90
18506;DHT22;9382;53.242;10.438;2022-10-30T14:13:12;29.10;99.90
18506;DHT22;9382;53.242;10.438;2022-10-30T14:15:41;28.70;99.90
18506;DHT22;9382;53.242;10.438;2022-10-30T14:21:30;28.80;99.90
18506;DHT22;9382;53.242;10.438;2022-10-30T14:24:03;29.30;99.90
18506;DHT22;9382;53.242;10.438;2022-10-30T14:26:31;29.30;99.90
18506;DHT22;9382;53.242;10.438;2022-10-30T14:29:30;29.00;99.90
18506;DHT22;9382;53.242;10.438;2022-10-30T14:32:33;29.00;99.90
18506;DHT22;9382;53.242;10.438;2022-10-30T14:35:00;28.80;99.90
18506;DHT22;9382;53.242;10.438;2022-10-30T14:37:53;28.60;99.90
18506;DHT22;9382;53.242;10.438;2022-10-30T14:40:39;28.30;99.90
18506;DHT22;9382;53.242;10.438;2022-10-30T14:43:16;27.80;99.90
18506;DHT22;9382;53.242;10.438;2022-10-30T14:45:47;27.00;99.90
18506;DHT22;9382;53.242;10.438;2022-10-30T14:48:23;26.20;99.90
18506;DHT22;9382;53.242;10.438;2022-10-30T14:51:04;25.40;99.90
18506;DHT22;9382;53.242;10.438;2022-10-30T14:53:43;24.60;99.90
18506;DHT22;9382;53.242;10.438;2022-10-30T14:56:22;23.70;99.90
18506;DHT22;9382;53.242;10.438;2022-10-30T14:59:16;23.00;99.90
18506;DHT22;9382;53.242;10.438;2022-10-30T15:01:50;22.40;99.90
18506;DHT22;9382;53.242;10.438;2022-10-30T15:04:22;21.90;99.90
18506;DHT22;9382;53.242;10.438;2022-10-30T15:07:00;21.50;99.90
18506;DHT22;9382;53.242;10.438;2022-10-30T15:09:44;21.10;99.90
18506;DHT22;9382;53.242;10.438;2022-10-30T15:12:21;20.80;99.90
18506;DHT22;9382;53.242;10.438;2022-10-30T15:14:52;20.50;99.90
18506;DHT22;9382;53.242;10.438;2022-10-30T15:17:26;20.20;99.90
18506;DHT22;9382;53.242;10.438;2022-10-30T15:19:53;20.00;99.90
18506;DHT22;9382;53.242;10.438;2022-10-30T15:22:22;19.70;99.90
18506;DHT22;9382;53.242;10.438;2022-10-30T15:24:51;19.50;99.90
18506;DHT22;9382;53.242;10.438;2022-10-30T15:27:20;19.30;99.90
18506;DHT22;9382;53.242;10.438;2022-10-30T15:29:50;19.10;99.90
18506;DHT22;9382;53.242;10.438;2022-10-30T15:32:19;18.80;99.90
18506;DHT22;9382;53.242;10.438;2022-10-30T15:34:55;18.60;99.90
18506;DHT22;9382;53.242;10.438;2022-10-30T15:37:22;18.40;99.90
18506;DHT22;9382;53.242;10.438;2022-10-30T15:39:48;18.20;99.90
18506;DHT22;9382;53.242;10.438;2022-10-30T15:42:15;18.00;99.90
18506;DHT22;9382;53.242;10.438;2022-10-30T15:44:44;17.90;99.90
18506;DHT22;9382;53.242;10.438;2022-10-30T15:47:14;17.80;99.90
18506;DHT22;9382;53.242;10.438;2022-10-30T15:49:47;17.60;99.90
18506;DHT22;9382;53.242;10.438;2022-10-30T15:52:18;17.50;99.90
18506;DHT22;9382;53.242;10.438;2022-10-30T15:54:50;17.30;99.90
18506;DHT22;9382;53.242;10.438;2022-10-30T15:57:21;17.10;99.90
18506;DHT22;9382;53.242;10.438;2022-10-30T15:59:52;17.00;99.90
18506;DHT22;9382;53.242;10.438;2022-10-30T16:02:21;16.90;99.90